Time;durP1;ratioP1;P1;durP2;ratioP2;P2;SDS_P1;SDS_P2;PMS_P1;PMS_P2;Temp;Humidity;BMP_temperature;BMP_pressure;BME280_temperature;BME280_humidity;BME280_pressure;Samples;Min_cycle;Max_cycle;Signal;HPM_P1;HPM_P2
2023/01/02 00:01:15;;;;;;;;;;;18.60;65.70;;;;;;4972421;28;1332;-72
2023/01/02 00:03:40;;;;;;;;;;;18.60;65.20;;;;;;4970417;28;1934;-72
2023/01/02 00:06:05;;;;;;;;;;;18.60;65.20;;;;;;4971793;28;1260;-72
2023/01/02 00:08:31;;;;;;;;;;;18.60;65.20;;;;;;4970413;28;916;-72
2023/01/02 00:10:56;;;;;;;;;;;18.60;65.30;;;;;;4971474;28;1296;-72
2023/01/02 00:13:22;;;;;;;;;;;18.60;65.30;;;;;;4970545;28;835;-72
2023/01/02 00:15:47;;;;;;;;;;;18.60;65.30;;;;;;4971667;28;1066;-72
2023/01/02 00:18:13;;;;;;;;;;;18.60;65.40;;;;;;4971452;28;872;-72
2023/01/02 00:20:38;;;;;;;;;;;18.60;65.40;;;;;;4971243;28;1324;-72
2023/01/02 00:23:04;;;;;;;;;;;18.60;65.40;;;;;;4971468;28;1960;-72
2023/01/02 00:25:29;;;;;;;;;;;18.60;65.50;;;;;;4971593;28;899;-72
2023/01/02 00:27:55;;;;;;;;;;;18.60;65.40;;;;;;4971698;28;907;-72
2023/01/02 00:30:20;;;;;;;;;;;18.60;65.40;;;;;;4971226;28;1269;-72
2023/01/02 00:32:46;;;;;;;;;;;18.60;65.40;;;;;;4971316;28;1074;-72
2023/01/02 00:35:11;;;;;;;;;;;18.60;65.40;;;;;;4971540;28;932;-72
2023/01/02 00:37:37;;;;;;;;;;;18.60;65.50;;;;;;4970355;28;959;-72
2023/01/02 00:40:03;;;;;;;;;;;18.60;65.50;;;;;;4971055;28;1379;-72
2023/01/02 00:42:28;;;;;;;;;;;18.60;65.50;;;;;;4971231;28;1910;-72
2023/01/02 00:44:54;;;;;;;;;;;18.60;65.50;;;;;;4972482;28;844;-72
2023/01/02 00:47:19;;;;;;;;;;;18.60;65.50;;;;;;4975137;28;1015;-72
2023/01/02 00:49:44;;;;;;;;;;;18.60;65.50;;;;;;4975256;28;909;-72
2023/01/02 00:52:10;;;;;;;;;;;18.60;65.50;;;;;;4973887;28;1262;-72
2023/01/02 00:54:35;;;;;;;;;;;18.60;65.50;;;;;;4975243;28;915;-72
2023/01/02 00:57:01;;;;;;;;;;;18.60;66.30;;;;;;4974043;28;1054;-72
2023/01/02 00:59:26;;;;;;;;;;;18.60;65.50;;;;;;4974973;28;805;-72
2023/01/02 01:01:52;;;;;;;;;;;18.60;65.60;;;;;;4974960;28;1265;-72
2023/01/02 01:04:17;;;;;;;;;;;18.60;65.60;;;;;;4975484;28;1899;-72
2023/01/02 01:06:43;;;;;;;;;;;18.60;65.60;;;;;;4975473;28;1380;-72
2023/01/02 01:09:08;;;;;;;;;;;18.60;65.60;;;;;;4975312;28;880;-72
2023/01/02 01:11:34;;;;;;;;;;;18.60;65.60;;;;;;4974972;28;1293;-72
2023/01/02 01:13:59;;;;;;;;;;;18.60;65.60;;;;;;4975379;28;891;-72
2023/01/02 01:16:25;;;;;;;;;;;18.60;65.60;;;;;;4973511;28;908;-72
2023/01/02 01:18:53;;;;;;;;;;;18.60;65.60;;;;;;4973658;28;790;-72
2023/01/02 01:21:19;;;;;;;;;;;18.60;65.60;;;;;;4973232;28;1352;-72
2023/01/02 01:23:48;;;;;;;;;;;18.60;65.70;;;;;;4974736;28;1914;-72
2023/01/02 01:26:14;;;;;;;;;;;18.60;65.60;;;;;;4974869;28;892;-72
2023/01/02 01:28:39;;;;;;;;;;;18.60;65.70;;;;;;4974372;28;1206;-72
2023/01/02 01:31:08;;;;;;;;;;;18.60;65.70;;;;;;4974536;28;1408;-72
2023/01/02 01:33:34;;;;;;;;;;;18.60;65.70;;;;;;4973350;28;924;-72
2023/01/02 01:36:02;;;;;;;;;;;18.60;65.70;;;;;;4974604;28;805;-72
2023/01/02 01:38:28;;;;;;;;;;;18.60;65.70;;;;;;4974571;28;1273;-72
2023/01/02 01:40:54;;;;;;;;;;;18.60;65.70;;;;;;4973039;28;1198;-72
2023/01/02 01:43:37;;;;;;;;;;;18.60;65.70;;;;;;4974558;28;1964;-72
2023/01/02 01:46:03;;;;;;;;;;;18.60;65.70;;;;;;4973511;28;1398;-73
2023/01/02 01:48:29;;;;;;;;;;;18.60;65.70;;;;;;4974190;28;887;-73
2023/01/02 01:50:54;;;;;;;;;;;18.60;65.70;;;;;;4972372;28;1701;-73
2023/01/02 01:53:20;;;;;;;;;;;18.60;65.70;;;;;;4974195;28;1189;-72
2023/01/02 01:55:49;;;;;;;;;;;18.60;65.70;;;;;;4972513;28;923;-72
2023/01/02 01:58:16;;;;;;;;;;;18.60;65.80;;;;;;4971622;28;813;-72
2023/01/02 02:00:41;;;;;;;;;;;18.60;65.80;;;;;;4973552;28;1360;-72
2023/01/02 02:03:10;;;;;;;;;;;18.60;65.80;;;;;;4973953;28;1954;-72
2023/01/02 02:05:36;;;;;;;;;;;18.60;65.80;;;;;;4972774;28;1187;-72
2023/01/02 02:08:14;;;;;;;;;;;18.60;65.80;;;;;;4972138;28;920;-73
2023/01/02 02:10:39;;;;;;;;;;;18.60;65.80;;;;;;4973375;28;1295;-73
2023/01/02 02:13:05;;;;;;;;;;;18.60;65.80;;;;;;4963998;28;1324;-73
2023/01/02 02:15:35;;;;;;;;;;;18.60;65.80;;;;;;4974106;28;824;-73
2023/01/02 02:18:19;;;;;;;;;;;18.60;65.80;;;;;;4972837;28;846;-73
2023/01/02 02:20:49;;;;;;;;;;;18.60;65.80;;;;;;4973411;28;1352;-73
2023/01/02 02:23:17;;;;;;;;;;;18.60;65.80;;;;;;4971327;28;1966;-73
2023/01/02 02:26:06;;;;;;;;;;;18.50;65.80;;;;;;4973594;28;856;-73
2023/01/02 02:28:43;;;;;;;;;;;18.50;65.80;;;;;;4965350;28;1183;-73
2023/01/02 02:31:14;;;;;;;;;;;18.50;65.80;;;;;;4973140;28;1255;-73
2023/01/02 02:33:44;;;;;;;;;;;18.50;65.80;;;;;;4972232;28;919;-73
2023/01/02 02:36:12;;;;;;;;;;;18.60;65.90;;;;;;4972265;28;900;-73
2023/01/02 02:39:01;;;;;;;;;;;18.50;65.80;;;;;;4972899;28;1296;-73
2023/01/02 02:41:29;;;;;;;;;;;18.50;65.90;;;;;;4964619;28;1273;-73
2023/01/02 02:44:10;;;;;;;;;;;18.50;65.80;;;;;;4973014;28;1879;-73
2023/01/02 02:46:35;;;;;;;;;;;18.50;65.80;;;;;;4973030;28;869;-73
2023/01/02 02:49:05;;;;;;;;;;;18.50;65.80;;;;;;4972859;28;1139;-73
2023/01/02 02:51:34;;;;;;;;;;;18.50;65.80;;;;;;4972001;28;1264;-73
2023/01/02 02:54:02;;;;;;;;;;;18.50;65.80;;;;;;4971711;28;917;-73
2023/01/02 02:56:28;;;;;;;;;;;18.50;65.90;;;;;;4955983;28;1213;-73
2023/01/02 02:58:53;;;;;;;;;;;18.50;65.80;;;;;;4972754;28;814;-73
2023/01/02 03:01:18;;;;;;;;;;;18.50;65.90;;;;;;4975269;28;1347;-73
2023/01/02 03:03:44;;;;;;;;;;;18.50;65.90;;;;;;4973767;28;1875;-73
2023/01/02 03:06:16;;;;;;;;;;;18.50;65.90;;;;;;4988653;28;1216;-73
2023/01/02 03:08:47;;;;;;;;;;;18.50;65.90;;;;;;4972684;28;803;-73
2023/01/02 03:11:12;;;;;;;;;;;18.50;65.90;;;;;;4972948;28;1253;-73
2023/01/02 03:13:59;;;;;;;;;;;18.50;65.90;;;;;;4973537;28;921;-73
2023/01/02 03:16:26;;;;;;;;;;;18.50;65.90;;;;;;4971820;28;916;-73
2023/01/02 03:19:10;;;;;;;;;;;18.50;65.90;;;;;;4973123;28;979;-73
2023/01/02 03:21:38;;;;;;;;;;;18.50;66.00;;;;;;4972884;28;1798;-73
2023/01/02 03:24:08;;;;;;;;;;;18.50;65.90;;;;;;4971723;28;1906;-73
2023/01/02 03:26:33;;;;;;;;;;;18.50;66.00;;;;;;4972744;28;904;-73
2023/01/02 03:29:01;;;;;;;;;;;18.50;66.00;;;;;;4972238;28;855;-73
2023/01/02 03:31:26;;;;;;;;;;;18.50;66.00;;;;;;4972044;28;1280;-73
2023/01/02 03:33:53;;;;;;;;;;;18.50;66.00;;;;;;4969803;28;903;-72
2023/01/02 03:36:21;;;;;;;;;;;18.50;66.00;;;;;;4972142;28;780;-72
2023/01/02 03:38:47;;;;;;;;;;;18.50;66.00;;;;;;4972558;28;1015;-73
2023/01/02 03:41:17;;;;;;;;;;;18.50;66.00;;;;;;4971697;28;1258;-72
2023/01/02 03:43:43;;;;;;;;;;;18.50;66.00;;;;;;4972565;28;2001;-71
2023/01/02 03:46:15;;;;;;;;;;;18.50;66.00;;;;;;4973209;28;892;-71
2023/01/02 03:48:43;;;;;;;;;;;18.50;66.00;;;;;;4972625;28;1039;-71
2023/01/02 03:51:08;;;;;;;;;;;18.50;66.00;;;;;;4972893;28;1241;-71
2023/01/02 03:53:34;;;;;;;;;;;18.50;66.00;;;;;;4972618;28;837;-72
2023/01/02 03:56:18;;;;;;;;;;;18.50;66.00;;;;;;4971120;28;952;-72
2023/01/02 03:58:52;;;;;;;;;;;18.50;66.00;;;;;;4971250;28;1335;-72
2023/01/02 04:01:30;;;;;;;;;;;18.50;66.10;;;;;;4971753;28;1332;-72
2023/01/02 04:03:57;;;;;;;;;;;18.50;66.00;;;;;;4970888;28;1923;-72
2023/01/02 04:06:28;;;;;;;;;;;18.50;66.00;;;;;;4970539;28;928;-72
2023/01/02 04:08:55;;;;;;;;;;;18.50;66.00;;;;;;4970650;28;908;-72
2023/01/02 04:11:20;;;;;;;;;;;18.50;66.00;;;;;;4971796;28;1265;-72
2023/01/02 04:13:47;;;;;;;;;;;18.50;66.00;;;;;;4970682;28;947;-72
2023/01/02 04:16:14;;;;;;;;;;;18.50;66.10;;;;;;4971760;28;1027;-72
2023/01/02 04:18:41;;;;;;;;;;;18.50;66.10;;;;;;4954036;28;1399;-72
2023/01/02 04:21:09;;;;;;;;;;;18.50;66.10;;;;;;4969777;28;1234;-72
2023/01/02 04:23:36;;;;;;;;;;;18.50;66.10;;;;;;4970475;28;1961;-72
2023/01/02 04:26:21;;;;;;;;;;;18.50;66.10;;;;;;4970275;28;920;-73
2023/01/02 04:28:47;;;;;;;;;;;18.50;66.20;;;;;;4959546;28;1224;-72
2023/01/02 04:31:14;;;;;;;;;;;18.50;66.10;;;;;;4970068;28;1375;-72
2023/01/02 04:33:46;;;;;;;;;;;18.50;66.10;;;;;;4970318;28;1205;-72
2023/01/02 04:36:12;;;;;;;;;;;18.50;66.10;;;;;;4970249;28;912;-72
2023/01/02 04:38:38;;;;;;;;;;;18.50;66.30;;;;;;4971310;28;1072;-72
2023/01/02 04:41:04;;;;;;;;;;;18.50;66.20;;;;;;4971582;28;1363;-72
2023/01/02 04:43:29;;;;;;;;;;;18.50;66.20;;;;;;4970447;28;1910;-72
2023/01/02 04:45:55;;;;;;;;;;;18.50;66.20;;;;;;4971609;28;821;-72
2023/01/02 04:48:20;;;;;;;;;;;18.50;66.20;;;;;;4971460;28;939;-72
2023/01/02 04:50:47;;;;;;;;;;;18.50;66.20;;;;;;4971245;28;1230;-72
2023/01/02 04:53:13;;;;;;;;;;;18.50;66.20;;;;;;4971542;28;846;-72
2023/01/02 04:55:38;;;;;;;;;;;18.50;66.30;;;;;;4970257;28;959;-72
2023/01/02 04:58:04;;;;;;;;;;;18.50;66.20;;;;;;4971645;28;1545;-72
2023/01/02 05:00:29;;;;;;;;;;;18.50;66.20;;;;;;4970612;28;1346;-72
2023/01/02 05:02:55;;;;;;;;;;;18.50;66.20;;;;;;4970577;28;1903;-72
2023/01/02 05:05:20;;;;;;;;;;;18.50;66.30;;;;;;4971258;28;1177;-72
2023/01/02 05:07:46;;;;;;;;;;;18.50;66.30;;;;;;4968443;28;924;-72
2023/01/02 05:10:11;;;;;;;;;;;18.50;66.30;;;;;;4970963;28;880;-72
2023/01/02 05:12:37;;;;;;;;;;;18.50;66.20;;;;;;4969524;28;1466;-72
2023/01/02 05:15:03;;;;;;;;;;;18.50;66.20;;;;;;4969668;28;884;-72
2023/01/02 05:17:32;;;;;;;;;;;18.50;66.20;;;;;;4970139;28;992;-72
2023/01/02 05:19:58;;;;;;;;;;;18.50;66.20;;;;;;4970547;28;1107;-72
2023/01/02 05:25:08;;;;;;;;;;;18.50;66.00;;;;;;4971826;28;757;-71
2023/01/02 05:27:33;;;;;;;;;;;18.60;65.90;;;;;;4972966;28;844;-71
2023/01/02 05:29:59;;;;;;;;;;;18.60;65.90;;;;;;4972485;28;927;-72
2023/01/02 05:32:25;;;;;;;;;;;18.60;65.80;;;;;;4974578;28;1356;-71
2023/01/02 05:34:51;;;;;;;;;;;18.60;65.80;;;;;;4975139;28;990;-71
2023/01/02 05:37:16;;;;;;;;;;;18.60;65.70;;;;;;4975803;28;935;-71
2023/01/02 05:39:42;;;;;;;;;;;18.60;65.60;;;;;;4973637;28;1397;-72
2023/01/02 05:42:07;;;;;;;;;;;18.60;65.60;;;;;;4974962;28;1335;-72
2023/01/02 05:44:33;;;;;;;;;;;18.70;65.60;;;;;;4974946;28;1956;-71
2023/01/02 05:46:58;;;;;;;;;;;18.70;65.50;;;;;;4974934;28;833;-72
2023/01/02 05:49:24;;;;;;;;;;;18.70;65.50;;;;;;4975202;28;888;-72
2023/01/02 05:51:49;;;;;;;;;;;18.70;65.50;;;;;;4975080;28;1307;-72
2023/01/02 05:54:15;;;;;;;;;;;18.70;65.40;;;;;;4974928;28;903;-72
2023/01/02 05:56:40;;;;;;;;;;;18.70;65.40;;;;;;4974465;28;875;-72
2023/01/02 05:59:06;;;;;;;;;;;18.70;65.40;;;;;;4973747;28;943;-72
2023/01/02 06:01:32;;;;;;;;;;;18.70;65.30;;;;;;4973996;28;1371;-72
2023/01/02 06:03:57;;;;;;;;;;;18.70;65.20;;;;;;4974482;28;1895;-72
2023/01/02 06:06:24;;;;;;;;;;;18.80;65.20;;;;;;4974238;28;1257;-72
2023/01/02 06:08:49;;;;;;;;;;;18.80;65.20;;;;;;4972564;28;821;-72
2023/01/02 06:11:15;;;;;;;;;;;18.80;65.10;;;;;;4972463;28;1364;-72
2023/01/02 06:13:40;;;;;;;;;;;18.80;65.00;;;;;;4973749;28;931;-73
2023/01/02 06:16:06;;;;;;;;;;;18.90;65.00;;;;;;4973822;28;1028;-72
2023/01/02 06:18:32;;;;;;;;;;;18.90;64.80;;;;;;4972380;28;1052;-73
2023/01/02 06:21:01;;;;;;;;;;;19.00;64.70;;;;;;4972117;28;1218;-73
2023/01/02 06:23:26;;;;;;;;;;;19.10;64.50;;;;;;4972745;28;1910;-72
2023/01/02 06:25:52;;;;;;;;;;;19.10;64.30;;;;;;4973248;28;883;-72
2023/01/02 06:28:17;;;;;;;;;;;19.20;64.20;;;;;;4973512;28;874;-72
2023/01/02 06:30:43;;;;;;;;;;;19.30;64.00;;;;;;4973132;28;1388;-73
2023/01/02 06:33:08;;;;;;;;;;;19.30;63.70;;;;;;4973825;28;812;-73
2023/01/02 06:35:34;;;;;;;;;;;19.40;63.50;;;;;;4973630;28;800;-73
2023/01/02 06:37:59;;;;;;;;;;;19.50;63.40;;;;;;4956322;28;1520;-73
2023/01/02 06:40:25;;;;;;;;;;;19.50;63.20;;;;;;4973241;28;1551;-73
2023/01/02 06:42:50;;;;;;;;;;;19.60;63.00;;;;;;4972474;28;1934;-73
2023/01/02 06:45:15;;;;;;;;;;;19.60;62.80;;;;;;4973342;28;803;-73
2023/01/02 06:47:41;;;;;;;;;;;19.70;62.70;;;;;;4973197;28;925;-73
2023/01/02 06:50:07;;;;;;;;;;;19.70;62.50;;;;;;4971652;28;940;-73
2023/01/02 06:52:32;;;;;;;;;;;19.70;62.40;;;;;;4972649;28;1178;-72
2023/01/02 06:54:57;;;;;;;;;;;19.80;62.30;;;;;;4972090;28;1240;-73
2023/01/02 06:57:23;;;;;;;;;;;19.80;62.20;;;;;;4973408;28;912;-73
2023/01/02 06:59:48;;;;;;;;;;;19.90;62.20;;;;;;4972817;28;963;-73
2023/01/02 07:02:14;;;;;;;;;;;19.90;62.00;;;;;;4971833;28;1355;-72
2023/01/02 07:04:39;;;;;;;;;;;19.90;61.90;;;;;;4972887;28;1959;-72
2023/01/02 07:07:05;;;;;;;;;;;20.00;61.80;;;;;;4974106;28;1329;-72
2023/01/02 07:09:30;;;;;;;;;;;20.00;61.80;;;;;;4973257;28;820;-72
2023/01/02 07:11:57;;;;;;;;;;;20.00;61.70;;;;;;4973980;28;1355;-73
2023/01/02 07:14:23;;;;;;;;;;;20.00;61.60;;;;;;4973145;28;892;-73
2023/01/02 07:16:48;;;;;;;;;;;20.10;61.60;;;;;;4974341;28;877;-73
2023/01/02 07:19:14;;;;;;;;;;;20.10;61.60;;;;;;4975168;28;871;-73
2023/01/02 07:21:39;;;;;;;;;;;20.10;61.40;;;;;;4974604;28;1323;-73
2023/01/02 07:24:05;;;;;;;;;;;20.20;61.40;;;;;;4973403;28;1918;-74
2023/01/02 07:26:30;;;;;;;;;;;20.20;61.30;;;;;;4972785;28;1077;-73
2023/01/02 07:28:56;;;;;;;;;;;20.20;61.30;;;;;;4971750;28;1078;-73
2023/01/02 07:31:21;;;;;;;;;;;20.20;61.20;;;;;;4973537;28;1237;-74
2023/01/02 07:33:47;;;;;;;;;;;20.20;61.20;;;;;;4973390;28;826;-74
2023/01/02 07:36:13;;;;;;;;;;;20.30;61.20;;;;;;4972302;28;835;-73
2023/01/02 07:38:39;;;;;;;;;;;20.30;61.10;;;;;;4971000;28;1391;-72
2023/01/02 07:41:10;;;;;;;;;;;20.30;61.00;;;;;;4971751;28;1312;-72
2023/01/02 07:43:35;;;;;;;;;;;20.30;61.00;;;;;;4970894;28;1981;-72
2023/01/02 07:46:02;;;;;;;;;;;20.40;61.00;;;;;;4972143;28;1720;-72
2023/01/02 07:48:28;;;;;;;;;;;20.40;60.90;;;;;;4972263;28;884;-73
2023/01/02 07:50:57;;;;;;;;;;;20.40;61.00;;;;;;4969512;28;1221;-72
2023/01/02 07:53:23;;;;;;;;;;;20.40;61.10;;;;;;4971513;28;2072;-73
2023/01/02 07:55:52;;;;;;;;;;;20.40;61.00;;;;;;4971835;28;2261;-72
2023/01/02 07:58:18;;;;;;;;;;;20.40;61.00;;;;;;4972012;28;1320;-71
2023/01/02 08:00:43;;;;;;;;;;;20.30;61.00;;;;;;4971739;28;1237;-72
2023/01/02 08:03:09;;;;;;;;;;;20.30;61.00;;;;;;4970722;28;1911;-72
2023/01/02 08:05:34;;;;;;;;;;;20.30;61.00;;;;;;4983183;28;1465;-71
2023/01/02 08:08:00;;;;;;;;;;;20.30;61.70;;;;;;4971455;28;1431;-71
2023/01/02 08:10:25;;;;;;;;;;;20.30;61.50;;;;;;4970254;28;1485;-71
2023/01/02 08:12:50;;;;;;;;;;;20.30;62.00;;;;;;4970835;28;1345;-72
2023/01/02 08:15:16;;;;;;;;;;;20.30;62.20;;;;;;4970962;28;1377;-72
2023/01/02 08:17:41;;;;;;;;;;;20.30;62.00;;;;;;4970979;28;1689;-72
2023/01/02 08:20:07;;;;;;;;;;;20.30;62.20;;;;;;4970546;28;1558;-72
2023/01/02 08:22:33;;;;;;;;;;;20.30;62.30;;;;;;4969306;28;1915;-72
2023/01/02 08:24:58;;;;;;;;;;;20.40;62.60;;;;;;4970884;28;1283;-71
2023/01/02 08:27:24;;;;;;;;;;;20.40;62.60;;;;;;4971778;28;851;-71
2023/01/02 08:29:50;;;;;;;;;;;20.30;62.80;;;;;;4971270;28;858;-71
2023/01/02 08:32:16;;;;;;;;;;;20.40;62.90;;;;;;4971687;28;1237;-71
2023/01/02 08:34:41;;;;;;;;;;;20.30;62.90;;;;;;4971579;28;884;-71
2023/01/02 08:37:06;;;;;;;;;;;20.40;63.00;;;;;;4971553;28;1043;-71
2023/01/02 08:39:32;;;;;;;;;;;20.40;63.20;;;;;;4971133;28;1403;-71
2023/01/02 08:41:58;;;;;;;;;;;20.30;63.30;;;;;;4973400;28;1510;-71
2023/01/02 08:44:23;;;;;;;;;;;20.40;63.80;;;;;;4971140;28;1965;-71
2023/01/02 08:46:48;;;;;;;;;;;20.40;64.50;;;;;;4971370;28;955;-71
2023/01/02 08:49:14;;;;;;;;;;;20.40;64.70;;;;;;4970186;28;1067;-71
2023/01/02 08:51:39;;;;;;;;;;;20.30;64.90;;;;;;4971293;28;1355;-71
2023/01/02 08:54:05;;;;;;;;;;;20.40;65.30;;;;;;4970529;28;836;-71
2023/01/02 08:56:30;;;;;;;;;;;20.40;65.40;;;;;;4971241;28;1011;-71
2023/01/02 08:58:57;;;;;;;;;;;20.40;65.60;;;;;;4970211;28;1597;-71
2023/01/02 09:01:22;;;;;;;;;;;20.30;65.70;;;;;;4969802;28;1318;-71
2023/01/02 09:03:48;;;;;;;;;;;20.30;65.90;;;;;;4971672;28;1952;-71
2023/01/02 09:06:14;;;;;;;;;;;20.30;66.10;;;;;;4973247;28;955;-72
2023/01/02 09:08:39;;;;;;;;;;;20.30;66.20;;;;;;4975966;28;837;-72
2023/01/02 09:11:14;;;;;;;;;;;20.30;66.20;;;;;;4975558;28;1355;-71
2023/01/02 09:13:40;;;;;;;;;;;20.30;67.20;;;;;;4972579;28;1026;-71
2023/01/02 09:16:06;;;;;;;;;;;20.30;67.00;;;;;;4974987;28;868;-71
2023/01/02 09:18:31;;;;;;;;;;;20.30;66.80;;;;;;4973907;28;986;-71
2023/01/02 09:20:57;;;;;;;;;;;20.30;66.80;;;;;;4973292;28;1253;-71
2023/01/02 09:23:22;;;;;;;;;;;20.30;66.70;;;;;;4974617;28;1958;-72
2023/01/02 09:25:48;;;;;;;;;;;20.30;66.60;;;;;;4974247;28;885;-71
2023/01/02 09:28:13;;;;;;;;;;;20.30;66.60;;;;;;4974560;28;927;-71
2023/01/02 09:30:38;;;;;;;;;;;20.20;66.60;;;;;;4974310;28;1308;-71
2023/01/02 09:33:04;;;;;;;;;;;20.30;66.50;;;;;;4974622;28;863;-72
2023/01/02 09:35:29;;;;;;;;;;;20.30;66.60;;;;;;4973234;28;805;-72
2023/01/02 09:37:55;;;;;;;;;;;20.30;66.70;;;;;;4974849;28;1001;-72
2023/01/02 09:40:20;;;;;;;;;;;20.30;66.60;;;;;;4973799;28;1822;-72
2023/01/02 09:42:46;;;;;;;;;;;20.30;66.40;;;;;;4972960;28;1963;-72
2023/01/02 09:45:11;;;;;;;;;;;20.20;66.50;;;;;;4972787;28;1094;-72
2023/01/02 09:47:37;;;;;;;;;;;20.20;66.50;;;;;;4972927;28;1082;-72
2023/01/02 09:50:03;;;;;;;;;;;20.20;66.40;;;;;;4972781;28;1023;-72
2023/01/02 09:52:36;;;;;;;;;;;20.30;66.40;;;;;;4972840;28;1386;-71
2023/01/02 09:55:01;;;;;;;;;;;20.30;66.40;;;;;;4971317;28;829;-72
2023/01/02 09:57:26;;;;;;;;;;;20.30;66.40;;;;;;4972744;28;1050;-71
2023/01/02 09:59:55;;;;;;;;;;;20.20;66.60;;;;;;4973079;28;1027;-71
2023/01/02 10:02:29;;;;;;;;;;;20.30;66.50;;;;;;4972336;28;1351;-72
2023/01/02 10:05:13;;;;;;;;;;;20.20;66.40;;;;;;4972359;28;1219;-74
2023/01/02 10:08:07;;;;;;;;;;;20.20;66.50;;;;;;4974308;28;1027;-73
2023/01/02 10:10:37;;;;;;;;;;;20.20;66.40;;;;;;4931136;28;1245;-73
2023/01/02 10:13:15;;;;;;;;;;;20.20;66.50;;;;;;4973940;28;903;-71
2023/01/02 10:15:44;;;;;;;;;;;20.20;66.60;;;;;;4973864;28;807;-71
2023/01/02 10:18:16;;;;;;;;;;;20.20;66.60;;;;;;4971359;28;916;-70
2023/01/02 10:20:41;;;;;;;;;;;20.20;67.40;;;;;;4973464;28;1336;-71
2023/01/02 10:23:17;;;;;;;;;;;20.20;66.70;;;;;;4972335;28;1911;-71
2023/01/02 10:25:43;;;;;;;;;;;20.20;66.70;;;;;;4973740;28;1051;-71
2023/01/02 10:28:12;;;;;;;;;;;20.10;66.70;;;;;;4972482;28;841;-72
2023/01/02 10:30:39;;;;;;;;;;;20.10;66.70;;;;;;4973050;28;1367;-72
2023/01/02 10:33:08;;;;;;;;;;;20.10;66.80;;;;;;4973382;28;1726;-72
2023/01/02 10:35:35;;;;;;;;;;;20.10;67.00;;;;;;4972787;28;956;-72
2023/01/02 10:38:01;;;;;;;;;;;20.10;67.10;;;;;;4973234;28;831;-72
2023/01/02 10:40:26;;;;;;;;;;;20.10;67.20;;;;;;4972965;28;1255;-72
2023/01/02 10:42:52;;;;;;;;;;;20.10;67.20;;;;;;4973387;28;1948;-71
2023/01/02 10:45:17;;;;;;;;;;;20.10;67.30;;;;;;4954183;28;1348;-71
2023/01/02 10:47:43;;;;;;;;;;;20.00;67.40;;;;;;4973171;28;1596;-71
2023/01/02 10:50:17;;;;;;;;;;;20.00;67.50;;;;;;4972876;28;896;-71
2023/01/02 10:52:48;;;;;;;;;;;20.00;67.50;;;;;;4971671;28;869;-71
2023/01/02 10:55:13;;;;;;;;;;;20.00;67.60;;;;;;4973289;28;872;-71
2023/01/02 10:57:40;;;;;;;;;;;20.00;67.70;;;;;;4972479;28;1393;-71
2023/01/02 11:00:07;;;;;;;;;;;20.00;67.80;;;;;;4972287;28;971;-71
2023/01/02 11:02:37;;;;;;;;;;;20.00;68.00;;;;;;4971789;28;1898;-71
2023/01/02 11:05:03;;;;;;;;;;;20.00;68.90;;;;;;4973360;28;913;-71
2023/01/02 11:07:30;;;;;;;;;;;20.00;69.30;;;;;;4951966;28;1710;-71
2023/01/02 11:09:56;;;;;;;;;;;20.00;69.40;;;;;;4971383;28;876;-71
2023/01/02 11:12:21;;;;;;;;;;;20.00;69.50;;;;;;4971296;28;1300;-71
2023/01/02 11:14:47;;;;;;;;;;;20.00;69.40;;;;;;4972370;28;2196;-71
2023/01/02 11:17:16;;;;;;;;;;;19.90;69.30;;;;;;4972459;28;1294;-71
2023/01/02 11:19:48;;;;;;;;;;;19.90;69.30;;;;;;4970267;28;1437;-71
2023/01/02 11:22:15;;;;;;;;;;;19.90;69.20;;;;;;4971200;28;1317;-71
2023/01/02 11:24:59;;;;;;;;;;;19.90;68.60;;;;;;4971361;28;2072;-71
2023/01/02 11:27:31;;;;;;;;;;;20.00;68.50;;;;;;4971739;28;812;-71
2023/01/02 11:29:57;;;;;;;;;;;20.00;68.40;;;;;;4971379;28;820;-71
2023/01/02 11:32:23;;;;;;;;;;;20.00;68.20;;;;;;4972372;28;1229;-71
2023/01/02 11:34:58;;;;;;;;;;;20.00;68.20;;;;;;4970753;28;878;-71
2023/01/02 11:37:24;;;;;;;;;;;20.00;68.10;;;;;;4969930;28;899;-70
2023/01/02 11:39:59;;;;;;;;;;;19.90;68.00;;;;;;4964713;28;1530;-69
2023/01/02 11:45:19;;;;;;;;;;;20.00;68.00;;;;;;4971805;28;781;-70
2023/01/02 11:47:45;;;;;;;;;;;19.90;68.40;;;;;;4971416;28;883;-71
2023/01/02 11:50:22;;;;;;;;;;;19.90;68.60;;;;;;4972018;28;983;-70
2023/01/02 11:53:08;;;;;;;;;;;19.90;68.40;;;;;;4973280;28;1061;-70
2023/01/02 11:55:52;;;;;;;;;;;19.90;68.30;;;;;;4972711;28;1165;-70
2023/01/02 11:58:29;;;;;;;;;;;19.90;68.30;;;;;;4971122;28;1501;-70
2023/01/02 12:00:56;;;;;;;;;;;19.90;68.40;;;;;;4972507;28;1245;-70
2023/01/02 12:03:22;;;;;;;;;;;19.90;68.30;;;;;;4972112;28;1899;-70
2023/01/02 12:05:51;;;;;;;;;;;19.80;68.30;;;;;;4972605;28;1302;-70
2023/01/02 12:08:28;;;;;;;;;;;19.80;68.40;;;;;;4970915;28;892;-71
2023/01/02 12:11:01;;;;;;;;;;;19.80;68.40;;;;;;4953708;28;1561;-71
2023/01/02 12:13:41;;;;;;;;;;;19.80;68.50;;;;;;4969598;28;1047;-71
2023/01/02 12:16:06;;;;;;;;;;;19.80;68.50;;;;;;4969893;28;1177;-72
2023/01/02 12:18:35;;;;;;;;;;;19.70;69.20;;;;;;4970341;28;1259;-72
2023/01/02 12:21:19;;;;;;;;;;;19.80;68.50;;;;;;4970831;28;1316;-72
2023/01/02 12:23:47;;;;;;;;;;;19.80;68.70;;;;;;4971793;28;2001;-73
2023/01/02 12:26:14;;;;;;;;;;;19.80;68.60;;;;;;4971725;28;896;-72
2023/01/02 12:28:42;;;;;;;;;;;19.70;68.70;;;;;;4970740;28;844;-72
2023/01/02 12:31:07;;;;;;;;;;;19.70;68.70;;;;;;4971294;28;1244;-72
2023/01/02 12:33:39;;;;;;;;;;;19.70;68.70;;;;;;4970720;28;923;-72
2023/01/02 12:36:08;;;;;;;;;;;19.80;69.10;;;;;;4969164;28;880;-71
2023/01/02 12:38:37;;;;;;;;;;;19.80;68.90;;;;;;4970205;28;959;-71
2023/01/02 12:41:09;;;;;;;;;;;19.80;69.00;;;;;;4970421;28;1289;-71
2023/01/02 12:43:35;;;;;;;;;;;19.80;69.00;;;;;;4970298;28;1958;-71
2023/01/02 12:46:19;;;;;;;;;;;19.70;69.00;;;;;;4971512;28;822;-71
2023/01/02 12:48:47;;;;;;;;;;;19.80;68.90;;;;;;4971760;28;872;-73
2023/01/02 12:51:31;;;;;;;;;;;19.70;68.90;;;;;;4953663;28;4218;-72
2023/01/02 12:53:57;;;;;;;;;;;19.80;69.00;;;;;;4970417;28;1252;-73
2023/01/02 12:56:41;;;;;;;;;;;19.70;69.10;;;;;;4970003;28;1331;-73
2023/01/02 12:59:10;;;;;;;;;;;19.70;69.10;;;;;;4970746;28;1367;-72
2023/01/02 13:01:36;;;;;;;;;;;19.70;69.10;;;;;;4969029;28;1871;-70
2023/01/02 13:04:03;;;;;;;;;;;19.70;69.90;;;;;;4972780;28;1911;-70
2023/01/02 13:06:29;;;;;;;;;;;19.70;69.10;;;;;;4970877;28;1280;-71
2023/01/02 13:09:13;;;;;;;;;;;19.70;68.70;;;;;;4971194;28;903;-71
2023/01/02 13:11:38;;;;;;;;;;;19.60;68.50;;;;;;4971316;28;1338;-71
2023/01/02 13:14:04;;;;;;;;;;;19.60;68.60;;;;;;4970001;28;1388;-71
2023/01/02 13:16:29;;;;;;;;;;;19.50;68.60;;;;;;4969415;28;1522;-71
2023/01/02 13:19:24;;;;;;;;;;;19.50;69.40;;;;;;4969750;28;1422;-71
2023/01/02 13:21:53;;;;;;;;;;;19.50;68.70;;;;;;4917365;28;1742;-71
2023/01/02 13:24:20;;;;;;;;;;;19.50;68.80;;;;;;4969385;28;1964;-71
2023/01/02 13:26:46;;;;;;;;;;;19.50;68.80;;;;;;4969837;28;1378;-71
2023/01/02 13:29:11;;;;;;;;;;;19.50;68.70;;;;;;4971110;28;1339;-72
2023/01/02 13:31:37;;;;;;;;;;;19.40;68.60;;;;;;4972003;28;1334;-71
2023/01/02 13:34:07;;;;;;;;;;;19.40;68.70;;;;;;4970628;28;855;-71
2023/01/02 13:36:36;;;;;;;;;;;19.40;68.70;;;;;;4969675;28;892;-71
2023/01/02 13:39:02;;;;;;;;;;;19.40;68.60;;;;;;4965604;28;1843;-72
2023/01/02 13:41:28;;;;;;;;;;;19.40;68.60;;;;;;4970739;28;1277;-71
2023/01/02 13:43:55;;;;;;;;;;;19.30;68.50;;;;;;4969654;28;1910;-72
2023/01/02 13:46:25;;;;;;;;;;;19.30;68.50;;;;;;4970344;28;801;-72
2023/01/02 13:48:50;;;;;;;;;;;19.30;68.40;;;;;;4971959;28;915;-71
2023/01/02 13:51:16;;;;;;;;;;;19.30;68.40;;;;;;4969076;28;1233;-72
2023/01/02 13:53:43;;;;;;;;;;;19.30;68.40;;;;;;4971381;28;1192;-72
2023/01/02 13:56:09;;;;;;;;;;;19.30;68.30;;;;;;4972780;28;1307;-70
2023/01/02 13:58:41;;;;;;;;;;;19.30;68.30;;;;;;4974431;28;874;-70
2023/01/02 14:01:25;;;;;;;;;;;19.30;68.20;;;;;;4969259;28;1414;-72
2023/01/02 14:04:21;;;;;;;;;;;19.30;68.20;;;;;;4973880;28;1962;-71
2023/01/02 14:06:47;;;;;;;;;;;19.30;68.20;;;;;;4973799;28;1397;-72
2023/01/02 14:09:13;;;;;;;;;;;19.20;68.10;;;;;;4973239;28;1296;-71
2023/01/02 14:11:41;;;;;;;;;;;19.20;68.10;;;;;;4972264;28;1296;-70
2023/01/02 14:14:08;;;;;;;;;;;19.20;68.10;;;;;;4973795;28;1007;-72
2023/01/02 14:16:57;;;;;;;;;;;19.20;68.10;;;;;;4973959;28;808;-70
2023/01/02 14:19:23;;;;;;;;;;;19.20;68.00;;;;;;4967425;28;1167;-70
2023/01/02 14:21:53;;;;;;;;;;;19.20;68.10;;;;;;4972316;28;1291;-71
2023/01/02 14:24:22;;;;;;;;;;;19.20;67.90;;;;;;4972281;28;1914;-71
2023/01/02 14:26:51;;;;;;;;;;;19.20;68.00;;;;;;4972229;28;876;-71
2023/01/02 14:29:17;;;;;;;;;;;19.20;67.90;;;;;;4972038;28;1030;-71
2023/01/02 14:31:42;;;;;;;;;;;19.10;67.80;;;;;;4971909;28;1378;-70
2023/01/02 14:34:09;;;;;;;;;;;19.10;67.80;;;;;;4973810;28;821;-70
2023/01/02 14:36:40;;;;;;;;;;;19.10;67.20;;;;;;4972349;28;874;-70
2023/01/02 14:39:07;;;;;;;;;;;19.20;66.80;;;;;;4972639;28;1309;-70
2023/01/02 14:44:42;;;;;;;;;;;19.20;66.10;;;;;;4973530;28;1919;-69
2023/01/02 14:47:11;;;;;;;;;;;19.20;65.30;;;;;;4971383;28;907;-70
2023/01/02 14:49:36;;;;;;;;;;;19.20;65.00;;;;;;4972027;28;1094;-69